sensor_id;sensor_type;location;lat;lon;timestamp;P1;durP1;ratioP1;P2;durP2;ratioP2
75760;SDS011;64373;46.136;8.830;2023-06-19T14:56:29;8.35;;;7.65;;
75760;SDS011;64373;46.136;8.830;2023-06-19T14:58:55;11.43;;;9.13;;
75760;SDS011;64373;46.136;8.830;2023-06-19T15:01:20;9.93;;;8.93;;
75760;SDS011;64373;46.136;8.830;2023-06-19T15:03:46;9.77;;;8.65;;
75760;SDS011;64373;46.136;8.830;2023-06-19T15:06:12;10.30;;;9.30;;
75760;SDS011;64373;46.136;8.830;2023-06-19T15:08:37;10.15;;;9.20;;
75760;SDS011;64373;46.136;8.830;2023-06-19T15:11:04;10.70;;;9.57;;
75760;SDS011;64373;46.136;8.830;2023-06-19T15:13:32;9.43;;;8.35;;
75760;SDS011;64373;46.136;8.830;2023-06-19T15:15:58;9.02;;;8.13;;
75760;SDS011;64373;46.136;8.830;2023-06-19T15:18:24;8.32;;;7.53;;
75760;SDS011;64373;46.136;8.830;2023-06-19T15:20:50;13.05;;;9.90;;
75760;SDS011;64373;46.136;8.830;2023-06-19T15:23:16;9.57;;;8.68;;
75760;SDS011;64373;46.136;8.830;2023-06-19T15:25:42;8.80;;;8.00;;
75760;SDS011;64373;46.136;8.830;2023-06-19T15:28:08;9.73;;;8.68;;
75760;SDS011;64373;46.136;8.830;2023-06-19T15:30:33;12.43;;;9.85;;
75760;SDS011;64373;46.136;8.830;2023-06-19T15:32:59;10.15;;;9.15;;
75760;SDS011;64373;46.136;8.830;2023-06-19T15:35:25;9.18;;;8.27;;
75760;SDS011;64373;46.136;8.830;2023-06-19T15:37:50;8.70;;;7.90;;
75760;SDS011;64373;46.136;8.830;2023-06-19T15:40:16;8.55;;;7.65;;
75760;SDS011;64373;46.136;8.830;2023-06-19T15:42:42;9.55;;;8.30;;
75760;SDS011;64373;46.136;8.830;2023-06-19T15:45:07;9.10;;;8.20;;
75760;SDS011;64373;46.136;8.830;2023-06-19T15:47:34;12.65;;;8.13;;
75760;SDS011;64373;46.136;8.830;2023-06-19T15:50:00;9.57;;;8.55;;
75760;SDS011;64373;46.136;8.830;2023-06-19T15:52:26;9.50;;;8.60;;
75760;SDS011;64373;46.136;8.830;2023-06-19T15:54:52;9.80;;;8.80;;
75760;SDS011;64373;46.136;8.830;2023-06-19T15:57:17;8.20;;;7.40;;
75760;SDS011;64373;46.136;8.830;2023-06-19T15:59:43;8.40;;;7.60;;
75760;SDS011;64373;46.136;8.830;2023-06-19T16:04:38;8.93;;;7.78;;
75760;SDS011;64373;46.136;8.830;2023-06-19T16:07:04;8.38;;;7.63;;
75760;SDS011;64373;46.136;8.830;2023-06-19T16:09:30;9.25;;;8.38;;
75760;SDS011;64373;46.136;8.830;2023-06-19T16:11:55;8.48;;;7.68;;
75760;SDS011;64373;46.136;8.830;2023-06-19T16:14:21;9.45;;;8.52;;
75760;SDS011;64373;46.136;8.830;2023-06-19T16:16:47;10.05;;;8.65;;
75760;SDS011;64373;46.136;8.830;2023-06-19T16:19:13;9.52;;;8.50;;
75760;SDS011;64373;46.136;8.830;2023-06-19T16:21:38;9.13;;;8.23;;
75760;SDS011;64373;46.136;8.830;2023-06-19T16:24:04;9.07;;;8.20;;
75760;SDS011;64373;46.136;8.830;2023-06-19T16:26:30;8.82;;;8.02;;
75760;SDS011;64373;46.136;8.830;2023-06-19T16:28:56;10.10;;;9.20;;
75760;SDS011;64373;46.136;8.830;2023-06-19T16:31:21;9.18;;;8.32;;
75760;SDS011;64373;46.136;8.830;2023-06-19T16:33:47;9.00;;;8.10;;
75760;SDS011;64373;46.136;8.830;2023-06-19T16:36:12;7.80;;;7.05;;
75760;SDS011;64373;46.136;8.830;2023-06-19T16:38:38;9.10;;;7.95;;
75760;SDS011;64373;46.136;8.830;2023-06-19T16:41:03;9.40;;;8.50;;
75760;SDS011;64373;46.136;8.830;2023-06-19T16:43:29;8.23;;;7.47;;
75760;SDS011;64373;46.136;8.830;2023-06-19T16:45:54;8.85;;;7.95;;
75760;SDS011;64373;46.136;8.830;2023-06-19T16:48:20;10.00;;;8.20;;
75760;SDS011;64373;46.136;8.830;2023-06-19T16:50:45;8.98;;;8.15;;
75760;SDS011;64373;46.136;8.830;2023-06-19T16:53:11;10.18;;;9.18;;
75760;SDS011;64373;46.136;8.830;2023-06-19T16:55:37;10.23;;;8.65;;
75760;SDS011;64373;46.136;8.830;2023-06-19T16:58:03;10.43;;;9.48;;
75760;SDS011;64373;46.136;8.830;2023-06-19T17:00:29;9.98;;;8.98;;
75760;SDS011;64373;46.136;8.830;2023-06-19T17:02:54;10.50;;;9.25;;
75760;SDS011;64373;46.136;8.830;2023-06-19T17:05:22;9.38;;;8.30;;
75760;SDS011;64373;46.136;8.830;2023-06-19T17:07:48;9.38;;;7.75;;
75760;SDS011;64373;46.136;8.830;2023-06-19T17:10:14;9.07;;;8.00;;
75760;SDS011;64373;46.136;8.830;2023-06-19T17:12:40;8.93;;;7.75;;
75760;SDS011;64373;46.136;8.830;2023-06-19T17:15:07;9.35;;;8.40;;
75760;SDS011;64373;46.136;8.830;2023-06-19T17:17:33;7.85;;;7.15;;
75760;SDS011;64373;46.136;8.830;2023-06-19T17:19:58;8.75;;;7.85;;
75760;SDS011;64373;46.136;8.830;2023-06-19T17:22:24;7.97;;;7.28;;
75760;SDS011;64373;46.136;8.830;2023-06-19T17:24:49;8.50;;;7.75;;
75760;SDS011;64373;46.136;8.830;2023-06-19T17:27:15;9.23;;;8.10;;
75760;SDS011;64373;46.136;8.830;2023-06-19T17:29:40;10.25;;;9.02;;
75760;SDS011;64373;46.136;8.830;2023-06-19T17:32:06;10.90;;;8.95;;
75760;SDS011;64373;46.136;8.830;2023-06-19T17:34:32;11.18;;;9.40;;
75760;SDS011;64373;46.136;8.830;2023-06-19T17:36:58;10.65;;;9.55;;
75760;SDS011;64373;46.136;8.830;2023-06-19T17:39:23;10.13;;;9.13;;
75760;SDS011;64373;46.136;8.830;2023-06-19T17:41:49;8.60;;;7.80;;
75760;SDS011;64373;46.136;8.830;2023-06-19T17:44:14;7.43;;;6.72;;
75760;SDS011;64373;46.136;8.830;2023-06-19T17:46:40;9.77;;;8.80;;
75760;SDS011;64373;46.136;8.830;2023-06-19T17:49:05;8.95;;;8.05;;
75760;SDS011;64373;46.136;8.830;2023-06-19T17:51:31;9.02;;;7.43;;
75760;SDS011;64373;46.136;8.830;2023-06-19T17:53:57;8.27;;;7.47;;
75760;SDS011;64373;46.136;8.830;2023-06-19T17:56:23;8.52;;;7.70;;
75760;SDS011;64373;46.136;8.830;2023-06-19T17:58:49;8.35;;;7.55;;
75760;SDS011;64373;46.136;8.830;2023-06-19T18:01:14;9.82;;;8.82;;
75760;SDS011;64373;46.136;8.830;2023-06-19T18:03:40;8.65;;;7.75;;
75760;SDS011;64373;46.136;8.830;2023-06-19T18:06:06;7.63;;;6.93;;
75760;SDS011;64373;46.136;8.830;2023-06-19T18:08:31;7.78;;;7.07;;
75760;SDS011;64373;46.136;8.830;2023-06-19T18:11:00;7.78;;;6.97;;
75760;SDS011;64373;46.136;8.830;2023-06-19T18:13:27;7.80;;;7.10;;
75760;SDS011;64373;46.136;8.830;2023-06-19T18:15:52;7.43;;;6.72;;
75760;SDS011;64373;46.136;8.830;2023-06-19T18:18:18;7.35;;;6.65;;
75760;SDS011;64373;46.136;8.830;2023-06-19T18:20:43;7.22;;;6.63;;
75760;SDS011;64373;46.136;8.830;2023-06-19T18:23:09;7.68;;;6.70;;
75760;SDS011;64373;46.136;8.830;2023-06-19T18:25:34;7.07;;;6.43;;
75760;SDS011;64373;46.136;8.830;2023-06-19T18:28:00;7.22;;;6.53;;
75760;SDS011;64373;46.136;8.830;2023-06-19T18:30:26;6.65;;;6.05;;
75760;SDS011;64373;46.136;8.830;2023-06-19T18:32:52;7.32;;;6.63;;
75760;SDS011;64373;46.136;8.830;2023-06-19T18:35:17;8.45;;;7.65;;
75760;SDS011;64373;46.136;8.830;2023-06-19T18:37:43;9.10;;;8.20;;
75760;SDS011;64373;46.136;8.830;2023-06-19T18:40:08;9.65;;;8.18;;
75760;SDS011;64373;46.136;8.830;2023-06-19T18:42:34;8.43;;;7.63;;
75760;SDS011;64373;46.136;8.830;2023-06-19T18:45:00;8.05;;;7.25;;
75760;SDS011;64373;46.136;8.830;2023-06-19T18:47:25;7.90;;;7.13;;
75760;SDS011;64373;46.136;8.830;2023-06-19T18:49:51;7.63;;;6.88;;
75760;SDS011;64373;46.136;8.830;2023-06-19T18:52:16;7.50;;;6.80;;
75760;SDS011;64373;46.136;8.830;2023-06-19T18:54:42;9.55;;;7.88;;
75760;SDS011;64373;46.136;8.830;2023-06-19T18:57:07;7.30;;;6.60;;
75760;SDS011;64373;46.136;8.830;2023-06-19T18:59:33;8.23;;;7.43;;
75760;SDS011;64373;46.136;8.830;2023-06-19T19:01:59;7.60;;;6.80;;
75760;SDS011;64373;46.136;8.830;2023-06-19T19:04:24;7.43;;;6.72;;
75760;SDS011;64373;46.136;8.830;2023-06-19T19:06:50;10.20;;;9.20;;
75760;SDS011;64373;46.136;8.830;2023-06-19T19:09:15;10.00;;;9.00;;
75760;SDS011;64373;46.136;8.830;2023-06-19T19:11:41;9.43;;;8.43;;
75760;SDS011;64373;46.136;8.830;2023-06-19T19:14:08;11.18;;;8.82;;
75760;SDS011;64373;46.136;8.830;2023-06-19T19:16:33;8.15;;;7.35;;
75760;SDS011;64373;46.136;8.830;2023-06-19T19:18:59;7.88;;;7.10;;
75760;SDS011;64373;46.136;8.830;2023-06-19T19:21:24;7.50;;;6.78;;
75760;SDS011;64373;46.136;8.830;2023-06-19T19:23:50;7.68;;;6.97;;
75760;SDS011;64373;46.136;8.830;2023-06-19T19:26:16;7.88;;;7.13;;
75760;SDS011;64373;46.136;8.830;2023-06-19T19:28:42;8.05;;;6.70;;
75760;SDS011;64373;46.136;8.830;2023-06-19T19:31:07;7.30;;;6.60;;
75760;SDS011;64373;46.136;8.830;2023-06-19T19:33:34;8.30;;;7.40;;
75760;SDS011;64373;46.136;8.830;2023-06-19T19:36:00;8.02;;;7.10;;
75760;SDS011;64373;46.136;8.830;2023-06-19T19:38:26;8.15;;;7.32;;
75760;SDS011;64373;46.136;8.830;2023-06-19T19:40:52;8.73;;;7.90;;
75760;SDS011;64373;46.136;8.830;2023-06-19T19:43:17;9.88;;;8.73;;
75760;SDS011;64373;46.136;8.830;2023-06-19T19:45:43;9.32;;;8.25;;
75760;SDS011;64373;46.136;8.830;2023-06-19T19:48:08;7.85;;;7.07;;
75760;SDS011;64373;46.136;8.830;2023-06-19T19:50:34;8.23;;;7.43;;
75760;SDS011;64373;46.136;8.830;2023-06-19T19:52:59;9.38;;;8.48;;
75760;SDS011;64373;46.136;8.830;2023-06-19T19:55:25;9.73;;;8.73;;
75760;SDS011;64373;46.136;8.830;2023-06-19T19:57:51;9.20;;;8.30;;
75760;SDS011;64373;46.136;8.830;2023-06-19T20:00:16;8.50;;;7.60;;
75760;SDS011;64373;46.136;8.830;2023-06-19T20:02:42;8.38;;;7.55;;
75760;SDS011;64373;46.136;8.830;2023-06-19T20:05:08;7.90;;;7.10;;
75760;SDS011;64373;46.136;8.830;2023-06-19T20:07:34;8.23;;;7.40;;
75760;SDS011;64373;46.136;8.830;2023-06-19T20:09:59;11.27;;;10.07;;
75760;SDS011;64373;46.136;8.830;2023-06-19T20:12:28;10.45;;;9.45;;
75760;SDS011;64373;46.136;8.830;2023-06-19T20:14:54;9.43;;;8.43;;
75760;SDS011;64373;46.136;8.830;2023-06-19T20:17:19;8.10;;;7.30;;
75760;SDS011;64373;46.136;8.830;2023-06-19T20:19:45;7.55;;;6.85;;
75760;SDS011;64373;46.136;8.830;2023-06-19T20:22:11;8.23;;;7.32;;
75760;SDS011;64373;46.136;8.830;2023-06-19T20:24:37;7.22;;;6.53;;
75760;SDS011;64373;46.136;8.830;2023-06-19T20:27:02;7.15;;;6.45;;
75760;SDS011;64373;46.136;8.830;2023-06-19T20:29:28;6.72;;;6.00;;
75760;SDS011;64373;46.136;8.830;2023-06-19T20:31:53;9.20;;;7.57;;
75760;SDS011;64373;46.136;8.830;2023-06-19T20:34:19;8.68;;;7.78;;
75760;SDS011;64373;46.136;8.830;2023-06-19T20:36:44;7.47;;;6.68;;
75760;SDS011;64373;46.136;8.830;2023-06-19T20:39:10;9.18;;;7.60;;
75760;SDS011;64373;46.136;8.830;2023-06-19T20:41:35;8.82;;;7.93;;
75760;SDS011;64373;46.136;8.830;2023-06-19T20:44:03;7.85;;;6.75;;
75760;SDS011;64373;46.136;8.830;2023-06-19T20:46:31;7.60;;;6.55;;
75760;SDS011;64373;46.136;8.830;2023-06-19T20:48:57;7.00;;;6.20;;
75760;SDS011;64373;46.136;8.830;2023-06-19T20:51:22;7.25;;;5.85;;
75760;SDS011;64373;46.136;8.830;2023-06-19T20:53:48;8.18;;;6.97;;
75760;SDS011;64373;46.136;8.830;2023-06-19T20:56:13;8.73;;;7.82;;
75760;SDS011;64373;46.136;8.830;2023-06-19T20:58:41;7.63;;;6.85;;
75760;SDS011;64373;46.136;8.830;2023-06-19T21:01:07;8.30;;;7.50;;
75760;SDS011;64373;46.136;8.830;2023-06-19T21:03:32;7.82;;;6.65;;
75760;SDS011;64373;46.136;8.830;2023-06-19T21:05:58;11.57;;;7.65;;
75760;SDS011;64373;46.136;8.830;2023-06-19T21:08:26;8.75;;;7.47;;
75760;SDS011;64373;46.136;8.830;2023-06-19T21:10:55;8.80;;;7.90;;
75760;SDS011;64373;46.136;8.830;2023-06-19T21:13:25;8.02;;;7.22;;
75760;SDS011;64373;46.136;8.830;2023-06-19T21:15:51;8.95;;;7.68;;
75760;SDS011;64373;46.136;8.830;2023-06-19T21:18:17;8.25;;;7.43;;
75760;SDS011;64373;46.136;8.830;2023-06-19T21:20:43;8.00;;;7.18;;
75760;SDS011;64373;46.136;8.830;2023-06-19T21:23:08;8.85;;;7.80;;
75760;SDS011;64373;46.136;8.830;2023-06-19T21:25:34;9.80;;;7.88;;
75760;SDS011;64373;46.136;8.830;2023-06-19T21:28:00;9.60;;;7.57;;
75760;SDS011;64373;46.136;8.830;2023-06-19T21:30:25;7.30;;;6.60;;
75760;SDS011;64373;46.136;8.830;2023-06-19T21:32:51;7.50;;;6.50;;
75760;SDS011;64373;46.136;8.830;2023-06-19T21:35:16;8.77;;;7.35;;
75760;SDS011;64373;46.136;8.830;2023-06-19T21:37:42;9.40;;;8.48;;
75760;SDS011;64373;46.136;8.830;2023-06-19T21:40:07;8.07;;;7.28;;
75760;SDS011;64373;46.136;8.830;2023-06-19T21:42:33;8.52;;;7.72;;
75760;SDS011;64373;46.136;8.830;2023-06-19T21:44:59;7.13;;;6.43;;
75760;SDS011;64373;46.136;8.830;2023-06-19T21:47:24;7.15;;;6.45;;
75760;SDS011;64373;46.136;8.830;2023-06-19T21:49:50;6.78;;;5.97;;
75760;SDS011;64373;46.136;8.830;2023-06-19T21:52:15;7.90;;;6.93;;
75760;SDS011;64373;46.136;8.830;2023-06-19T21:54:41;8.50;;;7.60;;
75760;SDS011;64373;46.136;8.830;2023-06-19T21:57:06;10.25;;;7.97;;
75760;SDS011;64373;46.136;8.830;2023-06-19T21:59:32;9.27;;;8.27;;
75760;SDS011;64373;46.136;8.830;2023-06-19T22:01:57;8.25;;;7.45;;
75760;SDS011;64373;46.136;8.830;2023-06-19T22:04:23;7.45;;;6.68;;
75760;SDS011;64373;46.136;8.830;2023-06-19T22:06:48;6.47;;;5.82;;
75760;SDS011;64373;46.136;8.830;2023-06-19T22:09:14;6.43;;;5.82;;
75760;SDS011;64373;46.136;8.830;2023-06-19T22:11:39;6.05;;;5.45;;
75760;SDS011;64373;46.136;8.830;2023-06-19T22:14:05;5.68;;;5.18;;
75760;SDS011;64373;46.136;8.830;2023-06-19T22:16:30;9.55;;;8.45;;
75760;SDS011;64373;46.136;8.830;2023-06-19T22:18:56;7.25;;;6.55;;
75760;SDS011;64373;46.136;8.830;2023-06-19T22:21:26;7.28;;;6.43;;
75760;SDS011;64373;46.136;8.830;2023-06-19T22:23:51;6.45;;;5.85;;
75760;SDS011;64373;46.136;8.830;2023-06-19T22:26:17;5.60;;;5.10;;
75760;SDS011;64373;46.136;8.830;2023-06-19T22:28:44;5.45;;;4.95;;
75760;SDS011;64373;46.136;8.830;2023-06-19T22:31:09;6.45;;;5.85;;
75760;SDS011;64373;46.136;8.830;2023-06-19T22:33:35;5.82;;;5.32;;
75760;SDS011;64373;46.136;8.830;2023-06-19T22:36:01;7.45;;;6.75;;
75760;SDS011;64373;46.136;8.830;2023-06-19T22:38:26;6.35;;;5.72;;
75760;SDS011;64373;46.136;8.830;2023-06-19T22:40:52;6.18;;;5.57;;
75760;SDS011;64373;46.136;8.830;2023-06-19T22:43:17;7.75;;;7.05;;
75760;SDS011;64373;46.136;8.830;2023-06-19T22:45:43;9.38;;;8.38;;
75760;SDS011;64373;46.136;8.830;2023-06-19T22:48:08;8.85;;;7.88;;
75760;SDS011;64373;46.136;8.830;2023-06-19T22:50:34;9.40;;;8.18;;
75760;SDS011;64373;46.136;8.830;2023-06-19T22:53:00;9.45;;;8.50;;
75760;SDS011;64373;46.136;8.830;2023-06-19T22:55:27;10.90;;;8.68;;
75760;SDS011;64373;46.136;8.830;2023-06-19T22:57:52;8.18;;;7.20;;
75760;SDS011;64373;46.136;8.830;2023-06-19T23:00:19;7.53;;;6.72;;
75760;SDS011;64373;46.136;8.830;2023-06-19T23:02:45;7.72;;;6.95;;
75760;SDS011;64373;46.136;8.830;2023-06-19T23:05:11;7.07;;;6.22;;
75760;SDS011;64373;46.136;8.830;2023-06-19T23:07:37;8.15;;;7.35;;
75760;SDS011;64373;46.136;8.830;2023-06-19T23:10:03;9.27;;;8.27;;
75760;SDS011;64373;46.136;8.830;2023-06-19T23:12:29;7.43;;;6.68;;
75760;SDS011;64373;46.136;8.830;2023-06-19T23:14:55;6.47;;;5.88;;
75760;SDS011;64373;46.136;8.830;2023-06-19T23:17:20;6.55;;;5.95;;
75760;SDS011;64373;46.136;8.830;2023-06-19T23:19:46;7.55;;;6.45;;
75760;SDS011;64373;46.136;8.830;2023-06-19T23:22:12;8.23;;;7.38;;
75760;SDS011;64373;46.136;8.830;2023-06-19T23:24:37;8.30;;;7.50;;
75760;SDS011;64373;46.136;8.830;2023-06-19T23:27:08;7.45;;;6.68;;
75760;SDS011;64373;46.136;8.830;2023-06-19T23:29:37;6.75;;;6.05;;
75760;SDS011;64373;46.136;8.830;2023-06-19T23:32:03;8.25;;;7.38;;
75760;SDS011;64373;46.136;8.830;2023-06-19T23:34:29;7.47;;;6.40;;
75760;SDS011;64373;46.136;8.830;2023-06-19T23:36:55;6.35;;;5.75;;
75760;SDS011;64373;46.136;8.830;2023-06-19T23:39:20;5.82;;;5.22;;
75760;SDS011;64373;46.136;8.830;2023-06-19T23:41:46;5.40;;;4.90;;
75760;SDS011;64373;46.136;8.830;2023-06-19T23:44:11;6.30;;;4.90;;
75760;SDS011;64373;46.136;8.830;2023-06-19T23:46:37;6.40;;;5.25;;
75760;SDS011;64373;46.136;8.830;2023-06-19T23:49:04;7.40;;;6.18;;
75760;SDS011;64373;46.136;8.830;2023-06-19T23:51:30;9.32;;;8.05;;
75760;SDS011;64373;46.136;8.830;2023-06-19T23:53:55;8.02;;;7.22;;
75760;SDS011;64373;46.136;8.830;2023-06-19T23:56:21;8.68;;;7.80;;
75760;SDS011;64373;46.136;8.830;2023-06-19T23:58:46;9.18;;;8.25;;
